createdAt,value
2022-10-10T00:01:21.440Z,92.60
2022-10-10T00:03:48.857Z,92.40
2022-10-10T00:06:16.884Z,92.30
2022-10-10T00:08:44.550Z,92.20
2022-10-10T00:11:13.188Z,92.40
2022-10-10T00:13:40.925Z,92.30
2022-10-10T00:16:08.637Z,92.10
2022-10-10T00:18:36.466Z,92.00
2022-10-10T00:21:04.166Z,92.20
2022-10-10T00:23:31.577Z,92.50
2022-10-10T00:25:59.034Z,92.40
2022-10-10T00:28:26.947Z,92.00
2022-10-10T00:30:54.223Z,92.30
2022-10-10T00:33:21.596Z,92.10
2022-10-10T00:35:49.513Z,92.40
2022-10-10T00:38:17.104Z,92.00
2022-10-10T00:40:49.993Z,92.00
2022-10-10T00:43:18.387Z,91.80
2022-10-10T00:45:47.637Z,91.80
2022-10-10T00:48:22.441Z,91.70
2022-10-10T00:50:58.986Z,91.60
2022-10-10T00:53:30.499Z,91.50
2022-10-10T00:55:59.530Z,91.20
2022-10-10T00:58:26.924Z,91.40
2022-10-10T01:00:55.245Z,91.80
2022-10-10T01:03:22.575Z,91.20
2022-10-10T01:05:51.047Z,91.20
2022-10-10T01:08:19.576Z,91.30
2022-10-10T01:11:41.644Z,91.20
2022-10-10T01:14:27.763Z,91.00
2022-10-10T01:17:26.892Z,91.00
2022-10-10T01:20:09.140Z,91.20
2022-10-10T01:22:48.286Z,91.00
2022-10-10T01:25:27.311Z,91.20
2022-10-10T01:28:06.287Z,90.90
2022-10-10T01:30:35.244Z,90.80
2022-10-10T01:33:08.515Z,91.10
2022-10-10T01:36:02.083Z,91.00
2022-10-10T01:38:50.788Z,91.00
2022-10-10T01:41:41.201Z,90.70
2022-10-10T01:44:08.503Z,90.90
2022-10-10T01:46:35.842Z,91.20
2022-10-10T01:49:03.469Z,91.00
2022-10-10T01:51:51.596Z,91.30
2022-10-10T01:54:53.660Z,91.40
2022-10-10T01:57:25.123Z,92.00
2022-10-10T02:00:09.801Z,92.30
2022-10-10T02:03:01.651Z,93.10
2022-10-10T02:05:53.886Z,92.80
2022-10-10T02:08:41.411Z,93.20
2022-10-10T02:11:10.698Z,92.50
2022-10-10T02:13:43.218Z,92.50
2022-10-10T02:16:34.832Z,92.50
2022-10-10T02:19:06.576Z,92.50
2022-10-10T02:21:34.709Z,92.40
2022-10-10T02:24:05.951Z,92.20
2022-10-10T02:26:34.945Z,92.70
2022-10-10T02:29:15.685Z,92.70
2022-10-10T02:32:11.305Z,92.20
2022-10-10T02:35:41.362Z,92.20
2022-10-10T02:38:12.451Z,92.00
2022-10-10T02:40:42.361Z,92.50
2022-10-10T02:43:11.291Z,93.80
2022-10-10T02:45:40.299Z,95.00
2022-10-10T02:48:07.660Z,93.90
2022-10-10T02:50:35.645Z,94.80
2022-10-10T02:53:02.906Z,95.00
2022-10-10T02:55:30.205Z,95.10
2022-10-10T02:57:57.459Z,95.40
2022-10-10T03:00:24.736Z,95.50
2022-10-10T03:02:52.313Z,95.70
2022-10-10T03:05:20.000Z,95.90
2022-10-10T03:07:47.691Z,96.20
2022-10-10T03:10:15.074Z,95.70
2022-10-10T03:12:42.342Z,96.50
2022-10-10T03:15:11.910Z,96.40
2022-10-10T03:17:39.909Z,96.80
2022-10-10T03:20:08.668Z,96.90
2022-10-10T03:22:36.027Z,95.90
2022-10-10T03:25:04.122Z,96.50
2022-10-10T03:27:31.446Z,96.50
2022-10-10T03:29:58.728Z,96.20
2022-10-10T03:32:26.125Z,95.80
2022-10-10T03:34:53.970Z,95.60
2022-10-10T03:37:21.329Z,95.70
2022-10-10T03:39:48.705Z,95.40
2022-10-10T03:42:15.989Z,95.00
2022-10-10T03:44:43.459Z,95.30
2022-10-10T03:47:11.073Z,95.00
2022-10-10T03:49:38.359Z,95.60
2022-10-10T03:52:05.792Z,95.00
2022-10-10T03:54:33.072Z,95.20
2022-10-10T03:57:00.384Z,95.30
2022-10-10T03:59:27.787Z,95.10
2022-10-10T04:01:55.582Z,95.50
2022-10-10T04:04:22.970Z,95.00
2022-10-10T04:06:50.280Z,95.20
2022-10-10T04:09:17.551Z,95.70
2022-10-10T04:11:44.900Z,95.70
2022-10-10T04:14:12.270Z,95.50
2022-10-10T04:16:39.545Z,95.40
2022-10-10T04:19:06.925Z,95.70
2022-10-10T04:21:34.617Z,95.70
2022-10-10T04:24:01.979Z,95.50
2022-10-10T04:26:29.269Z,95.60
2022-10-10T04:28:56.716Z,95.50
2022-10-10T04:31:24.693Z,95.30
2022-10-10T04:33:52.652Z,95.00
2022-10-10T04:36:20.069Z,95.40
2022-10-10T04:38:47.603Z,95.50
2022-10-10T04:41:15.037Z,95.30
2022-10-10T04:43:42.425Z,95.30
2022-10-10T04:46:09.735Z,95.70
2022-10-10T04:48:37.651Z,95.80
2022-10-10T04:51:05.126Z,95.80
2022-10-10T04:53:32.488Z,96.00
2022-10-10T04:55:59.801Z,96.10
2022-10-10T04:58:27.124Z,96.30
2022-10-10T05:00:55.311Z,96.20
2022-10-10T05:03:23.876Z,96.10
2022-10-10T05:05:51.755Z,95.80
2022-10-10T05:08:20.163Z,95.60
2022-10-10T05:10:47.724Z,95.70
2022-10-10T05:13:16.235Z,95.80
2022-10-10T05:15:43.733Z,96.30
2022-10-10T05:18:11.054Z,95.70
2022-10-10T05:20:38.405Z,95.80
2022-10-10T05:23:05.730Z,95.80
2022-10-10T05:25:33.302Z,95.90
2022-10-10T05:28:00.678Z,96.00
2022-10-10T05:30:28.109Z,96.00
2022-10-10T05:32:55.608Z,96.50
2022-10-10T05:35:22.870Z,96.10
2022-10-10T05:37:50.203Z,95.90
2022-10-10T05:40:17.631Z,96.00
2022-10-10T05:42:44.909Z,95.90
2022-10-10T05:45:12.269Z,96.10
2022-10-10T05:47:39.566Z,96.80
2022-10-10T05:50:11.347Z,96.40
2022-10-10T05:52:38.671Z,96.00
2022-10-10T05:55:06.203Z,95.50
2022-10-10T05:57:33.440Z,95.60
2022-10-10T06:00:00.683Z,95.10
2022-10-10T06:02:27.934Z,95.10
2022-10-10T06:04:55.280Z,95.30
2022-10-10T06:07:22.529Z,95.30
2022-10-10T06:09:49.750Z,95.20
2022-10-10T06:12:17.003Z,95.10
2022-10-10T06:14:44.311Z,95.10
2022-10-10T06:17:11.681Z,95.10
2022-10-10T06:19:38.993Z,95.20
2022-10-10T06:22:06.296Z,94.90
2022-10-10T06:24:33.665Z,95.00
2022-10-10T06:27:00.946Z,94.90
2022-10-10T06:29:28.458Z,95.30
2022-10-10T06:31:55.783Z,94.90
2022-10-10T06:34:23.059Z,94.90
2022-10-10T06:36:52.033Z,94.70
2022-10-10T06:39:19.464Z,94.90
2022-10-10T06:41:49.352Z,94.90
2022-10-10T06:44:19.135Z,94.80
2022-10-10T06:46:46.421Z,94.70
2022-10-10T06:49:13.725Z,94.80
2022-10-10T06:51:41.024Z,94.60
2022-10-10T06:54:08.327Z,94.60
2022-10-10T06:56:35.639Z,94.20
2022-10-10T06:59:03.056Z,94.60
2022-10-10T07:01:30.438Z,94.50
2022-10-10T07:03:57.735Z,94.70
2022-10-10T07:06:25.246Z,94.60
2022-10-10T07:08:52.551Z,94.60
2022-10-10T07:11:19.915Z,94.70
2022-10-10T07:13:47.324Z,94.80
2022-10-10T07:16:14.555Z,94.70
2022-10-10T07:18:41.856Z,94.70
2022-10-10T07:21:09.888Z,94.50
2022-10-10T07:23:37.235Z,94.60
2022-10-10T07:26:08.024Z,94.40
2022-10-10T07:28:35.391Z,94.40
2022-10-10T07:31:05.596Z,94.30
2022-10-10T07:33:34.854Z,94.20
2022-10-10T07:36:02.183Z,94.30
2022-10-10T07:38:29.696Z,94.10
2022-10-10T07:40:56.953Z,93.90
2022-10-10T07:43:24.323Z,94.30
2022-10-10T07:45:51.644Z,94.00
2022-10-10T07:48:18.962Z,93.80
2022-10-10T07:50:46.462Z,94.00
2022-10-10T07:53:13.963Z,94.00
2022-10-10T07:55:43.046Z,94.20
2022-10-10T07:58:13.599Z,94.30
2022-10-10T08:00:42.121Z,94.60
2022-10-10T08:03:12.091Z,94.70
2022-10-10T08:05:41.308Z,94.40
2022-10-10T08:08:09.870Z,94.50
2022-10-10T08:10:37.656Z,94.00
2022-10-10T08:13:05.167Z,94.10
2022-10-10T08:15:51.651Z,94.00
2022-10-10T08:18:19.631Z,94.30
2022-10-10T08:20:47.050Z,94.80
2022-10-10T08:23:14.323Z,94.50
2022-10-10T08:25:41.587Z,94.50
2022-10-10T08:28:09.348Z,94.80
2022-10-10T08:30:41.293Z,94.70
2022-10-10T08:33:08.714Z,94.70
2022-10-10T08:35:39.870Z,94.60
2022-10-10T08:38:07.268Z,94.70
2022-10-10T08:40:42.274Z,94.60
2022-10-10T08:43:16.894Z,94.40
2022-10-10T08:45:44.602Z,94.20
2022-10-10T08:48:16.479Z,94.10
2022-10-10T08:50:49.181Z,94.30
2022-10-10T08:53:32.362Z,93.80
2022-10-10T08:56:01.093Z,93.60
2022-10-10T08:58:37.253Z,93.50
2022-10-10T09:01:16.452Z,93.80
2022-10-10T09:03:57.393Z,93.90
2022-10-10T09:07:06.426Z,94.50
2022-10-10T09:09:51.836Z,94.10
2022-10-10T09:12:40.110Z,93.60
2022-10-10T09:15:33.913Z,93.60
2022-10-10T09:18:01.146Z,93.80
2022-10-10T09:20:45.911Z,93.30
2022-10-10T09:23:32.375Z,93.40
2022-10-10T09:26:06.419Z,93.70
2022-10-10T09:28:54.300Z,93.60
2022-10-10T09:31:38.683Z,93.90
2022-10-10T09:34:18.983Z,92.80
2022-10-10T09:36:48.070Z,92.70
2022-10-10T09:39:34.579Z,92.00
2022-10-10T09:42:04.545Z,92.10
2022-10-10T09:44:32.624Z,91.60
2022-10-10T09:47:00.683Z,91.40
2022-10-10T09:49:29.678Z,90.90
2022-10-10T09:51:57.113Z,90.50
2022-10-10T09:54:25.170Z,90.80
2022-10-10T09:56:58.094Z,91.50
2022-10-10T09:59:43.047Z,91.70
2022-10-10T10:02:17.730Z,91.30
2022-10-10T10:04:45.911Z,91.30
2022-10-10T10:07:25.471Z,90.60
2022-10-10T10:09:57.512Z,90.40
2022-10-10T10:12:31.999Z,90.10
2022-10-10T10:15:06.225Z,88.40
2022-10-10T10:17:33.663Z,86.50
2022-10-10T10:20:00.981Z,85.60
2022-10-10T10:22:37.282Z,83.80
2022-10-10T10:25:38.862Z,82.50
2022-10-10T10:28:12.958Z,82.70
2022-10-10T10:30:41.581Z,79.60
2022-10-10T10:33:18.115Z,80.20
2022-10-10T10:36:19.398Z,80.00
2022-10-10T10:38:53.057Z,79.50
2022-10-10T10:41:34.447Z,76.90
2022-10-10T10:44:19.949Z,70.90
2022-10-10T10:47:08.680Z,65.90
2022-10-10T10:49:52.566Z,61.50
2022-10-10T10:52:34.053Z,57.30
2022-10-10T10:55:01.285Z,53.80
2022-10-10T10:58:10.530Z,51.10
2022-10-10T11:01:21.073Z,50.50
2022-10-10T11:05:16.503Z,47.50
2022-10-10T11:06:59.925Z,45.50
2022-10-10T11:09:50.216Z,44.50
2022-10-10T11:12:39.116Z,43.50
2022-10-10T11:15:12.132Z,43.20
2022-10-10T11:17:51.803Z,43.00
2022-10-10T11:20:31.405Z,42.90
2022-10-10T11:23:12.254Z,42.80
2022-10-10T11:25:52.425Z,41.00
2022-10-10T11:28:35.750Z,40.60
2022-10-10T11:31:08.801Z,39.60
2022-10-10T11:33:42.075Z,40.60
2022-10-10T11:36:20.992Z,39.90
2022-10-10T11:38:51.289Z,39.90
2022-10-10T11:41:33.996Z,39.40
2022-10-10T11:44:04.961Z,38.30
2022-10-10T11:46:44.290Z,37.80
2022-10-10T11:49:25.150Z,36.80
2022-10-10T11:52:15.039Z,37.20
2022-10-10T11:55:20.295Z,37.60
2022-10-10T11:57:57.486Z,35.90
2022-10-10T12:00:26.129Z,37.10
2022-10-10T12:02:57.340Z,37.00
2022-10-10T12:05:29.109Z,36.60
2022-10-10T12:08:38.780Z,36.60
2022-10-10T12:11:10.055Z,35.70
2022-10-10T12:13:41.627Z,36.10
2022-10-10T12:16:20.645Z,36.30
2022-10-10T12:18:54.755Z,38.10
2022-10-10T12:21:26.785Z,38.10
2022-10-10T12:24:14.024Z,38.90
2022-10-10T12:26:53.099Z,41.20
2022-10-10T12:29:51.353Z,43.50
2022-10-10T12:32:39.796Z,45.60
2022-10-10T12:35:29.759Z,47.50
2022-10-10T12:38:19.772Z,49.90
2022-10-10T12:41:08.752Z,51.80
2022-10-10T12:43:48.279Z,51.10
2022-10-10T12:46:27.763Z,51.70
2022-10-10T12:49:21.222Z,52.30
2022-10-10T12:51:59.765Z,52.50
2022-10-10T12:54:39.900Z,53.60
2022-10-10T12:57:37.283Z,54.70
2022-10-10T13:00:26.160Z,53.60
2022-10-10T13:02:58.670Z,53.40
2022-10-10T13:05:35.850Z,54.00
2022-10-10T13:08:07.006Z,54.70
2022-10-10T13:10:34.522Z,56.10
2022-10-10T13:13:15.764Z,56.90
2022-10-10T13:15:53.094Z,57.70
2022-10-10T13:18:59.731Z,58.10
2022-10-10T13:21:32.126Z,57.30
2022-10-10T13:24:04.885Z,57.70
2022-10-10T13:26:37.391Z,57.60
2022-10-10T13:29:30.982Z,58.20
2022-10-10T13:32:00.529Z,58.60
2022-10-10T13:34:40.114Z,59.40
2022-10-10T13:37:07.607Z,59.10
2022-10-10T13:39:37.955Z,60.10
2022-10-10T13:42:06.070Z,59.80
2022-10-10T13:44:54.149Z,61.60
2022-10-10T13:47:43.867Z,60.90
2022-10-10T13:50:30.076Z,61.80
2022-10-10T13:53:25.132Z,60.80
2022-10-10T13:56:06.822Z,60.80
2022-10-10T13:58:47.973Z,61.80
2022-10-10T14:01:29.999Z,61.20
2022-10-10T14:04:02.772Z,62.30
2022-10-10T14:06:30.794Z,63.00
2022-10-10T14:09:12.083Z,63.10
2022-10-10T14:11:40.711Z,63.40
2022-10-10T14:14:15.186Z,64.10
2022-10-10T14:16:42.495Z,64.00
2022-10-10T14:19:19.283Z,63.10
2022-10-10T14:21:46.656Z,62.20
2022-10-10T14:24:15.433Z,63.60
2022-10-10T14:26:43.489Z,64.50
2022-10-10T14:29:15.450Z,64.50
2022-10-10T14:31:43.906Z,64.60
2022-10-10T14:34:12.354Z,64.90
2022-10-10T14:36:48.486Z,66.00
2022-10-10T14:39:17.850Z,66.20
2022-10-10T14:41:45.878Z,66.00
2022-10-10T14:44:13.467Z,66.00
2022-10-10T14:46:41.706Z,66.30
2022-10-10T14:49:18.414Z,67.00
2022-10-10T14:51:47.115Z,67.20
2022-10-10T14:54:14.930Z,67.80
2022-10-10T14:57:07.532Z,68.10
2022-10-10T14:59:47.955Z,68.20
2022-10-10T15:02:19.631Z,69.50
2022-10-10T15:04:47.006Z,70.10
2022-10-10T15:07:15.659Z,71.00
2022-10-10T15:10:18.888Z,69.70
2022-10-10T15:12:34.070Z,69.20
2022-10-10T15:15:01.535Z,68.60
2022-10-10T15:17:30.465Z,69.70
2022-10-10T15:19:57.805Z,70.70
2022-10-10T15:22:25.180Z,70.00
2022-10-10T15:24:52.401Z,70.80
2022-10-10T15:27:19.708Z,71.10
2022-10-10T15:29:47.005Z,70.10
2022-10-10T15:32:14.243Z,70.80
2022-10-10T15:34:41.518Z,71.30
2022-10-10T15:37:10.471Z,70.90
2022-10-10T15:39:37.955Z,71.00
2022-10-10T15:42:13.312Z,71.20
2022-10-10T15:44:46.768Z,71.40
2022-10-10T15:47:15.847Z,71.30
2022-10-10T15:49:43.469Z,70.90
2022-10-10T15:52:11.012Z,71.00
2022-10-10T15:54:38.815Z,72.20
2022-10-10T15:57:06.273Z,72.20
2022-10-10T15:59:33.623Z,72.60
2022-10-10T16:02:01.854Z,71.60
2022-10-10T16:04:29.208Z,72.80
2022-10-10T16:07:24.188Z,71.80
2022-10-10T16:09:44.089Z,72.60
2022-10-10T16:12:11.699Z,74.50
2022-10-10T16:14:38.977Z,74.00
2022-10-10T16:17:06.299Z,73.90
2022-10-10T16:19:33.663Z,74.00
2022-10-10T16:22:01.052Z,73.80
2022-10-10T16:24:28.391Z,74.10
2022-10-10T16:26:55.908Z,74.10
2022-10-10T16:29:23.159Z,74.20
2022-10-10T16:31:50.437Z,75.60
2022-10-10T16:34:18.774Z,78.00
2022-10-10T16:36:46.147Z,79.10
2022-10-10T16:39:13.567Z,78.50
2022-10-10T16:41:49.172Z,78.50
2022-10-10T16:44:17.682Z,78.60
2022-10-10T16:46:45.264Z,76.90
2022-10-10T16:49:14.234Z,77.40
2022-10-10T16:51:41.575Z,77.00
2022-10-10T16:54:09.055Z,77.30
2022-10-10T16:56:36.384Z,76.90
2022-10-10T16:59:04.128Z,77.10
2022-10-10T17:01:31.585Z,77.50
2022-10-10T17:04:00.184Z,77.80
2022-10-10T17:06:34.815Z,77.90
2022-10-10T17:09:03.466Z,78.30
2022-10-10T17:11:30.711Z,78.30
2022-10-10T17:13:58.436Z,78.30
2022-10-10T17:19:15.657Z,79.10
2022-10-10T17:21:43.133Z,79.20
2022-10-10T17:24:10.429Z,80.10
2022-10-10T17:26:37.871Z,79.80
2022-10-10T17:29:05.207Z,80.70
2022-10-10T17:31:32.727Z,80.50
2022-10-10T17:34:00.012Z,80.40
2022-10-10T17:36:28.489Z,80.80
2022-10-10T17:39:01.886Z,80.80
2022-10-10T17:41:29.952Z,81.20
2022-10-10T17:43:57.454Z,81.50
2022-10-10T17:46:34.851Z,81.90
2022-10-10T17:49:09.065Z,82.20
2022-10-10T17:51:38.305Z,82.30
2022-10-10T17:54:06.977Z,81.80
2022-10-10T17:56:34.724Z,82.50
2022-10-10T17:59:05.477Z,83.10
2022-10-10T18:01:35.056Z,83.60
2022-10-10T18:04:02.596Z,84.00
2022-10-10T18:06:30.693Z,84.20
2022-10-10T18:08:58.841Z,84.30
2022-10-10T18:11:29.075Z,84.20
2022-10-10T18:14:00.563Z,84.60
2022-10-10T18:16:34.334Z,84.90
2022-10-10T18:19:03.692Z,85.70
2022-10-10T18:21:31.527Z,85.70
2022-10-10T18:23:58.946Z,86.10
2022-10-10T18:26:29.558Z,86.30
2022-10-10T18:28:57.661Z,86.60
2022-10-10T18:31:31.066Z,86.70
2022-10-10T18:33:58.969Z,86.80
2022-10-10T18:36:29.826Z,87.30
2022-10-10T18:39:03.076Z,87.00
2022-10-10T18:41:34.323Z,87.60
2022-10-10T18:44:07.660Z,88.00
2022-10-10T18:46:35.245Z,88.00
2022-10-10T18:49:04.546Z,88.50
2022-10-10T18:51:32.161Z,88.80
2022-10-10T18:54:07.524Z,89.10
2022-10-10T18:56:38.073Z,89.50
2022-10-10T18:59:08.014Z,90.20
2022-10-10T19:01:36.784Z,90.20
2022-10-10T19:04:05.963Z,90.10
2022-10-10T19:06:34.166Z,90.20
2022-10-10T19:09:02.292Z,90.40
2022-10-10T19:11:32.759Z,90.70
2022-10-10T19:14:02.355Z,90.90
2022-10-10T19:16:30.910Z,91.20
2022-10-10T19:19:00.116Z,91.50
2022-10-10T19:21:29.687Z,91.40
2022-10-10T19:23:58.747Z,91.40
2022-10-10T19:26:26.401Z,91.80
2022-10-10T19:28:53.789Z,91.70
2022-10-10T19:31:21.227Z,91.60
2022-10-10T19:33:52.219Z,92.00
2022-10-10T19:36:19.560Z,92.00
2022-10-10T19:38:46.991Z,92.10
2022-10-10T19:41:14.841Z,92.20
2022-10-10T19:43:44.381Z,92.40
2022-10-10T19:46:14.410Z,92.50
2022-10-10T19:48:41.880Z,92.70
2022-10-10T19:51:12.368Z,92.80
2022-10-10T19:53:40.931Z,93.10
2022-10-10T19:56:21.938Z,93.40
2022-10-10T19:58:49.234Z,93.20
2022-10-10T20:01:17.825Z,93.30
2022-10-10T20:03:46.518Z,93.40
2022-10-10T20:06:14.901Z,93.60
2022-10-10T20:08:42.387Z,93.80
2022-10-10T20:11:10.029Z,93.90
2022-10-10T20:13:37.518Z,94.00
2022-10-10T20:16:08.897Z,94.10
2022-10-10T20:18:39.519Z,94.10
2022-10-10T20:21:16.303Z,94.20
2022-10-10T20:23:45.815Z,94.10
2022-10-10T20:26:19.291Z,94.10
2022-10-10T20:28:46.941Z,94.40
2022-10-10T20:31:19.875Z,94.50
2022-10-10T20:33:49.239Z,94.70
2022-10-10T20:36:17.124Z,94.70
2022-10-10T20:38:45.063Z,94.80
2022-10-10T20:41:12.425Z,94.90
2022-10-10T20:43:39.820Z,95.00
2022-10-10T20:46:12.224Z,95.10
2022-10-10T20:48:39.975Z,95.20
2022-10-10T20:51:09.867Z,95.30
2022-10-10T20:53:38.521Z,95.40
2022-10-10T20:56:07.506Z,95.40
2022-10-10T20:58:36.861Z,95.60
2022-10-10T21:01:05.583Z,95.40
2022-10-10T21:03:32.892Z,95.60
2022-10-10T21:06:14.744Z,95.60
2022-10-10T21:08:42.609Z,95.70
2022-10-10T21:11:12.336Z,95.70
2022-10-10T21:13:41.864Z,95.80
2022-10-10T21:16:15.822Z,95.90
2022-10-10T21:18:57.113Z,96.00
2022-10-10T21:21:44.226Z,95.80
2022-10-10T21:24:12.771Z,95.90
2022-10-10T21:26:41.585Z,95.90
2022-10-10T21:29:08.937Z,96.00
2022-10-10T21:31:39.458Z,96.20
2022-10-10T21:34:10.098Z,96.20
2022-10-10T21:36:37.446Z,96.20
2022-10-10T21:39:06.900Z,96.50
2022-10-10T21:41:35.153Z,96.50
2022-10-10T21:44:02.469Z,96.50
2022-10-10T21:46:35.863Z,96.50
2022-10-10T21:49:10.067Z,96.60
2022-10-10T21:51:40.944Z,96.70
2022-10-10T21:54:09.441Z,96.80
2022-10-10T21:56:37.672Z,96.80
2022-10-10T21:59:05.645Z,96.80
2022-10-10T22:01:33.416Z,96.90
2022-10-10T22:04:01.834Z,97.00
2022-10-10T22:06:29.491Z,96.90
2022-10-10T22:08:58.989Z,97.00
2022-10-10T22:11:28.179Z,97.10
2022-10-10T22:13:55.584Z,97.20
2022-10-10T22:16:22.961Z,97.30
2022-10-10T22:18:55.580Z,97.20
2022-10-10T22:21:28.019Z,97.30
2022-10-10T22:24:01.367Z,97.30
2022-10-10T22:26:29.665Z,97.20
2022-10-10T22:28:57.392Z,97.20
2022-10-10T22:31:28.221Z,97.20
2022-10-10T22:33:55.816Z,97.20
2022-10-10T22:36:23.226Z,97.30
2022-10-10T22:38:50.479Z,97.40
2022-10-10T22:41:17.827Z,97.20
2022-10-10T22:43:45.340Z,97.20
2022-10-10T22:46:12.717Z,97.20
2022-10-10T22:48:40.110Z,97.40
2022-10-10T22:51:18.325Z,97.40
2022-10-10T22:53:47.369Z,97.40
2022-10-10T22:56:19.164Z,97.40
2022-10-10T22:58:48.476Z,97.40
2022-10-10T23:01:18.641Z,97.40
2022-10-10T23:03:46.303Z,97.40
2022-10-10T23:06:14.353Z,97.40
2022-10-10T23:08:41.797Z,97.30
2022-10-10T23:11:09.097Z,97.30
2022-10-10T23:13:36.453Z,97.40
2022-10-10T23:16:04.356Z,97.30
2022-10-10T23:18:32.397Z,97.30
2022-10-10T23:21:00.385Z,97.30
2022-10-10T23:23:27.769Z,97.20
2022-10-10T23:25:55.288Z,97.20
2022-10-10T23:28:22.666Z,97.20
2022-10-10T23:30:50.075Z,97.30
2022-10-10T23:33:17.475Z,97.40
2022-10-10T23:35:44.867Z,97.40
2022-10-10T23:38:12.119Z,97.50
2022-10-10T23:40:39.482Z,97.40
2022-10-10T23:43:07.439Z,97.40
2022-10-10T23:45:34.723Z,97.50
2022-10-10T23:48:02.067Z,97.50
2022-10-10T23:50:29.394Z,97.60
2022-10-10T23:52:56.770Z,97.60
2022-10-10T23:55:24.261Z,97.90
2022-10-10T23:57:51.577Z,97.60
